x

Destruction Island, Wa (desw1) Weather Station

2:00 - Mon 29th May 2017 All times are PDT. -7 hours from GMT.

  • Wind
    14mph, 16mph gusts
  • Air Temp 54°f
  • Sea Pressure 1017.6mb
  • Destruction Island, Wa
  • Destruction Island, Wa

More Historic Weather Station data

Upgrade to MSW Pro to gain access to the past 30 days of data for over 8000 Wavebouys and Weather Stations around the globe.

Join Pro

Comparision Forecast

View Surf forecast
   
lun. 05/29 2:00 14 16 mph 1017.6mb 54f
1:00 11 13 mph 1017.8mb 53f
12:00 8 10 mph 1018mb 53f
11:00 6 7 mph 1018.3mb 52f
10:00 10 10 mph 1018.4mb 51f
9:00 6 7 mph 1018.9mb 51f
8:00 6 7 mph 1019.1mb 51f
7:00 6 8 mph 1019.3mb 51f
6:00 8 10 mph 1019.3mb 51f
5:00 7 8 mph 1019.1mb 51f
4:00 11 13 mph 1019.5mb 51f
3:00 8 10 mph 1019.9mb 51f
2:00 5 7 mph 1019.9mb 51f
1:00 5 7 mph 1020mb 51f
12:00 3 3 mph 1020.2mb 51f
dim. 05/28 11:00 6 7 mph 1020mb 51f
10:00 7 8 mph 1019.8mb 51f
9:00 7 9 mph 1019.7mb 51f
8:00 9 10 mph 1019.7mb 52f
7:00 9 10 mph 1019.4mb 52f
6:00 13 14 mph 1019.9mb 52f
5:00 13 15 mph 1020.2mb 52f
4:00 10 14 mph 1020.3mb 53f
3:00 10 13 mph 1020.5mb 53f
2:00 11 14 mph 1020.7mb 52f
1:00 7 8 mph 1020.8mb 53f
12:00 8 8 mph 1021mb 51f
11:00 1 5 mph 1020.9mb 51f
10:00  -  0 mph 1020.8mb 49f
9:00 3 5 mph 1021mb 49f
8:00 6 8 mph 1021.1mb 49f
7:00  -  0 mph 1020.7mb 50f
6:00  -  0 mph 1020.4mb 50f
5:00 8 10 mph 1020.2mb 51f
4:00 5 6 mph 1020.1mb 51f
3:00 9 9 mph 1020mb 52f
2:00 11 14 mph 1019.6mb 52f
1:00 9 10 mph 1019.3mb 52f
12:00 11 13 mph 1018.7mb 52f
sam. 05/27 11:00 8 9 mph 1018.6mb 51f
10:00 15 17 mph 1018.7mb 51f
9:00 11 13 mph 1018.8mb 50f
8:00 10 13 mph 1018.9mb 50f
7:00 11 13 mph 1019mb 51f
6:00 9 11 mph 1019.3mb 51f
5:00 9 11 mph 1019.5mb 52f
4:00 8 8 mph 1019.7mb 51f
3:00 10 11 mph 1019.9mb 51f
2:00 8 9 mph 1019.9mb 51f
1:00 5 7 mph 1020.1mb 52f
12:00 7 8 mph 1020mb 52f
11:00 8 9 mph 1019.8mb 50f
10:00 3 3 mph 1019.3mb 51f
9:00 2 3 mph 1019.2mb 51f
8:00 1 2 mph 1018.7mb 50f
7:00  -  1 mph 1018.4mb 50f
6:00 6 7 mph 1017.9mb 49f
5:00 8 9 mph 1017.5mb 50f
4:00 11 13 mph 1017.3mb 52f
3:00 8 8 mph 1017.1mb 52f
2:00 11 13 mph 1017.2mb 52f
1:00 13 15 mph 1017.1mb 53f
12:00 14 15 mph 1017mb 53f
ven. 05/26 11:00 14 14 mph 1016.9mb 53f
10:00 11 11 mph 1016.8mb 53f
9:00 8 8 mph 1016.4mb 54f
8:00 7 8 mph 1016.5mb 55f
7:00 9 10 mph 1016.5mb 56f
6:00 7 8 mph 1016.5mb 56f
5:00 5 8 mph 1016.5mb 58f
4:00 5 7 mph 1016.4mb 57f
3:00  -  1 mph 1016.4mb 56f
2:00 6 7 mph 1016.3mb 53f
1:00 6 6 mph 1016.1mb 52f
12:00 5 5 mph 1015.9mb 52f
11:00 3 3 mph 1015.6mb 51f
10:00 3 3 mph 1015.5mb 53f
9:00  -  1 mph 1014.9mb 54f
8:00  -  0 mph 1014.4mb 54f
7:00 3 3 mph 1014.1mb 52f
6:00 2 2 mph 1013.8mb 50f
5:00 3 3 mph 1013.9mb 50f
4:00 3 5 mph 1013.8mb 51f
3:00 2 2 mph 1013.7mb 50f
2:00 1 2 mph 1013.5mb 50f
1:00 5 5 mph 1013.3mb 51f
12:00 3 3 mph 1012.9mb 50f
jeu. 05/25 11:00 6 7 mph 1012.8mb 50f